createdAt,value
2023-09-10T00:00:19.161Z,0.00
2023-09-10T00:01:19.273Z,0.00
2023-09-10T00:02:19.164Z,0.00
2023-09-10T00:03:19.214Z,0.00
2023-09-10T00:04:19.143Z,0.00
2023-09-10T00:05:19.110Z,0.00
2023-09-10T00:06:19.095Z,0.00
2023-09-10T00:07:19.089Z,0.00
2023-09-10T00:08:19.078Z,0.00
2023-09-10T00:09:19.070Z,0.00
2023-09-10T00:10:19.073Z,0.00
2023-09-10T00:11:19.097Z,0.00
2023-09-10T00:12:19.032Z,0.00
2023-09-10T00:13:19.041Z,0.00
2023-09-10T00:14:19.007Z,0.00
2023-09-10T00:15:19.000Z,0.00
2023-09-10T00:16:19.029Z,0.00
2023-09-10T00:17:18.985Z,0.00
2023-09-10T00:18:18.969Z,0.00
2023-09-10T00:19:19.261Z,0.00
2023-09-10T00:20:18.960Z,0.00
2023-09-10T00:21:18.956Z,0.00
2023-09-10T00:22:18.931Z,0.00
2023-09-10T00:23:18.940Z,0.00
2023-09-10T00:24:18.907Z,0.00
2023-09-10T00:25:18.919Z,0.00
2023-09-10T00:26:18.881Z,0.00
2023-09-10T00:27:18.885Z,0.00
2023-09-10T00:28:18.862Z,0.00
2023-09-10T00:29:18.898Z,0.00
2023-09-10T00:30:19.060Z,0.00
2023-09-10T00:31:18.874Z,0.00
2023-09-10T00:32:18.851Z,0.00
2023-09-10T00:33:18.959Z,0.00
2023-09-10T00:34:18.816Z,0.00
2023-09-10T00:35:18.805Z,0.00
2023-09-10T00:36:18.774Z,0.00
2023-09-10T00:37:18.792Z,0.00
2023-09-10T00:38:18.775Z,0.00
2023-09-10T00:39:19.549Z,0.00
2023-09-10T00:40:18.729Z,0.00
2023-09-10T00:41:18.722Z,0.00
2023-09-10T00:42:18.708Z,0.00
2023-09-10T00:43:18.718Z,0.00
2023-09-10T00:44:18.684Z,0.00
2023-09-10T00:45:18.699Z,0.00
2023-09-10T00:46:18.740Z,0.00
2023-09-10T00:47:18.680Z,0.00
2023-09-10T00:48:18.641Z,0.00
2023-09-10T00:49:18.632Z,0.00
2023-09-10T00:50:18.678Z,0.00
2023-09-10T00:51:18.637Z,0.00
2023-09-10T00:52:18.602Z,0.00
2023-09-10T00:53:18.588Z,0.00
2023-09-10T00:54:18.575Z,0.00
2023-09-10T00:55:18.572Z,0.00
2023-09-10T00:56:18.566Z,0.00
2023-09-10T00:57:18.572Z,0.00
2023-09-10T00:58:18.540Z,0.00
2023-09-10T00:59:18.596Z,0.00
2023-09-10T01:00:18.550Z,0.00
2023-09-10T01:01:18.533Z,0.00
2023-09-10T01:02:18.560Z,0.00
2023-09-10T01:03:18.577Z,0.00
2023-09-10T01:04:18.471Z,0.00
2023-09-10T01:05:18.499Z,0.00
2023-09-10T01:06:18.447Z,0.00
2023-09-10T01:07:18.447Z,0.00
2023-09-10T01:08:18.443Z,0.00
2023-09-10T01:09:18.579Z,0.00
2023-09-10T01:10:18.422Z,0.00
2023-09-10T01:11:18.411Z,0.00
2023-09-10T01:12:18.388Z,0.00
2023-09-10T01:13:18.387Z,0.00
2023-09-10T01:14:18.388Z,0.00
2023-09-10T01:15:18.358Z,0.00
2023-09-10T01:16:18.355Z,0.00
2023-09-10T01:17:18.385Z,0.00
2023-09-10T01:18:18.376Z,0.00
2023-09-10T01:19:18.312Z,0.00
2023-09-10T01:20:18.359Z,0.00
2023-09-10T01:21:18.294Z,0.00
2023-09-10T01:22:18.276Z,0.00
2023-09-10T01:23:18.276Z,0.00
2023-09-10T01:24:18.254Z,0.00
2023-09-10T01:25:18.251Z,0.00
2023-09-10T01:26:18.258Z,0.00
2023-09-10T01:27:18.229Z,0.00
2023-09-10T01:28:18.215Z,0.00
2023-09-10T01:29:18.257Z,0.00
2023-09-10T01:30:18.200Z,0.00
2023-09-10T01:31:18.197Z,0.00
2023-09-10T01:32:18.193Z,0.00
2023-09-10T01:33:18.167Z,0.00
2023-09-10T01:34:18.156Z,0.00
2023-09-10T01:35:18.146Z,0.00
2023-09-10T01:36:18.133Z,0.00
2023-09-10T01:37:18.119Z,0.00
2023-09-10T01:38:18.129Z,0.00
2023-09-10T01:39:18.094Z,0.00
2023-09-10T01:40:18.082Z,0.00
2023-09-10T01:41:18.082Z,0.00
2023-09-10T01:42:18.073Z,0.00
2023-09-10T01:43:18.086Z,0.00
2023-09-10T01:44:18.073Z,0.00
2023-09-10T01:45:18.029Z,0.00
2023-09-10T01:46:18.079Z,0.00
2023-09-10T01:47:18.061Z,0.00
2023-09-10T01:48:18.094Z,0.00
2023-09-10T01:49:18.012Z,0.00
2023-09-10T01:50:18.084Z,0.00
2023-09-10T01:51:17.966Z,0.00
2023-09-10T01:52:17.964Z,0.00
2023-09-10T01:53:18.004Z,0.00
2023-09-10T01:54:17.941Z,0.00
2023-09-10T01:55:17.964Z,0.00
2023-09-10T01:56:17.935Z,0.00
2023-09-10T01:57:17.900Z,0.00
2023-09-10T01:58:17.890Z,0.00
2023-09-10T01:59:17.991Z,0.00
2023-09-10T02:00:17.875Z,0.00
2023-09-10T02:01:17.871Z,0.00
2023-09-10T02:02:17.951Z,0.00
2023-09-10T02:03:17.848Z,0.00
2023-09-10T02:04:17.897Z,0.00
2023-09-10T02:05:17.869Z,0.00
2023-09-10T02:06:17.816Z,0.00
2023-09-10T02:07:17.802Z,0.00
2023-09-10T02:08:17.822Z,0.00
2023-09-10T02:09:17.764Z,0.00
2023-09-10T02:10:17.762Z,0.00
2023-09-10T02:11:17.770Z,0.00
2023-09-10T02:12:17.761Z,0.00
2023-09-10T02:13:17.749Z,0.00
2023-09-10T02:14:17.789Z,0.00
2023-09-10T02:15:17.696Z,0.00
2023-09-10T02:16:17.757Z,0.00
2023-09-10T02:18:17.713Z,0.00
2023-09-10T02:19:17.652Z,0.00
2023-09-10T02:20:17.680Z,0.00
2023-09-10T02:21:17.636Z,0.00
2023-09-10T02:22:17.627Z,0.00
2023-09-10T02:23:17.673Z,0.00
2023-09-10T02:24:17.622Z,0.00
2023-09-10T02:25:17.609Z,0.00
2023-09-10T02:26:17.617Z,0.00
2023-09-10T02:27:17.604Z,0.00
2023-09-10T02:28:17.563Z,0.00
2023-09-10T02:29:17.582Z,0.00
2023-09-10T02:30:17.561Z,0.00
2023-09-10T02:31:17.575Z,0.00
2023-09-10T02:32:17.596Z,0.00
2023-09-10T02:33:17.534Z,0.00
2023-09-10T02:34:17.506Z,0.00
2023-09-10T02:35:17.554Z,0.00
2023-09-10T02:36:17.479Z,0.00
2023-09-10T02:37:17.465Z,0.00
2023-09-10T02:38:17.489Z,0.00
2023-09-10T02:39:17.436Z,0.00
2023-09-10T02:40:17.432Z,0.00
2023-09-10T02:41:17.458Z,0.00
2023-09-10T02:42:17.406Z,0.00
2023-09-10T02:43:17.392Z,0.00
2023-09-10T02:44:17.406Z,0.00
2023-09-10T02:45:17.382Z,0.00
2023-09-10T02:46:17.449Z,0.00
2023-09-10T02:47:17.383Z,0.00
2023-09-10T02:48:17.352Z,0.00
2023-09-10T02:49:17.325Z,0.00
2023-09-10T02:50:17.328Z,0.00
2023-09-10T02:51:17.303Z,0.00
2023-09-10T02:52:17.305Z,0.00
2023-09-10T02:53:17.385Z,0.00
2023-09-10T02:54:17.290Z,0.00
2023-09-10T02:55:17.266Z,0.00
2023-09-10T02:56:17.318Z,0.00
2023-09-10T02:57:17.243Z,0.00
2023-09-10T02:58:17.259Z,0.00
2023-09-10T02:59:17.247Z,0.00
2023-09-10T03:00:17.215Z,0.00
2023-09-10T03:01:17.208Z,0.00
2023-09-10T03:02:17.292Z,0.00
2023-09-10T03:03:17.222Z,0.00
2023-09-10T03:04:17.193Z,0.00
2023-09-10T03:05:17.222Z,0.00
2023-09-10T03:06:17.153Z,0.00
2023-09-10T03:07:17.132Z,0.00
2023-09-10T03:08:17.157Z,0.00
2023-09-10T03:09:17.171Z,0.00
2023-09-10T03:10:17.142Z,0.00
2023-09-10T03:11:17.141Z,0.00
2023-09-10T03:12:17.095Z,0.00
2023-09-10T03:13:17.070Z,0.00
2023-09-10T03:14:17.172Z,0.00
2023-09-10T03:15:17.083Z,0.00
2023-09-10T03:16:17.118Z,0.00
2023-09-10T03:17:17.094Z,0.00
2023-09-10T03:18:17.022Z,0.00
2023-09-10T03:19:17.008Z,0.00
2023-09-10T03:20:17.034Z,0.00
2023-09-10T03:21:16.989Z,0.00
2023-09-10T03:22:17.005Z,0.00
2023-09-10T03:23:17.002Z,0.00
2023-09-10T03:24:16.964Z,0.00
2023-09-10T03:25:16.979Z,0.00
2023-09-10T03:26:16.979Z,0.00
2023-09-10T03:27:16.950Z,0.00
2023-09-10T03:28:16.935Z,0.00
2023-09-10T03:29:16.956Z,0.00
2023-09-10T03:30:16.909Z,0.00
2023-09-10T03:31:16.883Z,0.00
2023-09-10T03:32:20.074Z,0.00
2023-09-10T03:33:16.959Z,0.00
2023-09-10T03:34:16.860Z,0.00
2023-09-10T03:35:16.893Z,0.00
2023-09-10T03:36:16.846Z,0.00
2023-09-10T03:37:16.832Z,0.00
2023-09-10T03:38:17.019Z,0.00
2023-09-10T03:39:16.806Z,0.00
2023-09-10T03:40:17.795Z,0.00
2023-09-10T03:41:16.812Z,0.00
2023-09-10T03:42:16.773Z,0.00
2023-09-10T03:43:16.761Z,0.00
2023-09-10T03:44:16.999Z,0.00
2023-09-10T03:45:16.763Z,0.00
2023-09-10T03:46:16.755Z,0.00
2023-09-10T03:47:16.789Z,0.00
2023-09-10T03:48:16.722Z,0.00
2023-09-10T03:49:16.712Z,0.00
2023-09-10T03:50:17.049Z,0.00
2023-09-10T03:51:16.703Z,0.00
2023-09-10T03:52:16.692Z,0.00
2023-09-10T03:53:16.707Z,0.00
2023-09-10T03:54:16.669Z,0.00
2023-09-10T03:55:16.724Z,0.00
2023-09-10T03:56:16.690Z,0.00
2023-09-10T03:57:16.643Z,0.00
2023-09-10T03:58:16.630Z,0.00
2023-09-10T03:59:16.661Z,0.00
2023-09-10T04:00:16.766Z,0.00
2023-09-10T04:01:16.610Z,0.00
2023-09-10T04:02:16.606Z,0.00
2023-09-10T04:03:16.637Z,0.00
2023-09-10T04:04:16.584Z,0.00
2023-09-10T04:05:16.664Z,0.00
2023-09-10T04:06:16.571Z,0.00
2023-09-10T04:07:16.554Z,0.00
2023-09-10T04:08:16.559Z,0.00
2023-09-10T04:09:16.511Z,0.00
2023-09-10T04:10:16.522Z,0.00
2023-09-10T04:11:16.578Z,0.00
2023-09-10T04:12:16.454Z,1.00
2023-09-10T04:13:16.475Z,0.00
2023-09-10T04:14:16.462Z,1.00
2023-09-10T04:15:16.459Z,1.00
2023-09-10T04:16:16.402Z,1.00
2023-09-10T04:17:16.550Z,0.00
2023-09-10T04:18:16.432Z,2.00
2023-09-10T04:19:16.364Z,1.00
2023-09-10T04:20:16.408Z,1.00
2023-09-10T04:21:16.345Z,2.00
2023-09-10T04:22:16.333Z,1.00
2023-09-10T04:23:16.385Z,1.00
2023-09-10T04:24:16.313Z,5.00
2023-09-10T04:25:16.331Z,2.00
2023-09-10T04:26:16.339Z,2.00
2023-09-10T04:27:16.298Z,2.00
2023-09-10T04:28:16.300Z,7.00
2023-09-10T04:29:16.286Z,3.00
2023-09-10T04:30:16.256Z,5.00
2023-09-10T04:31:16.330Z,7.00
2023-09-10T04:32:16.270Z,5.00
2023-09-10T04:33:16.241Z,13.00
2023-09-10T04:34:16.211Z,9.00
2023-09-10T04:35:16.248Z,9.00
2023-09-10T04:36:16.194Z,18.00
2023-09-10T04:37:16.236Z,18.00
2023-09-10T04:38:16.239Z,22.00
2023-09-10T04:39:16.259Z,26.00
2023-09-10T04:40:16.954Z,25.00
2023-09-10T04:41:16.234Z,35.00
2023-09-10T04:42:16.128Z,38.00
2023-09-10T04:43:16.109Z,48.00
2023-09-10T04:44:16.140Z,52.00
2023-09-10T04:45:16.137Z,56.00
2023-09-10T04:46:16.155Z,63.00
2023-09-10T04:47:16.148Z,71.00
2023-09-10T04:48:16.116Z,76.00
2023-09-10T04:49:16.072Z,89.00
2023-09-10T04:50:16.109Z,97.00
2023-09-10T04:51:16.040Z,104.00
2023-09-10T04:52:16.025Z,117.00
2023-09-10T04:53:16.085Z,125.00
2023-09-10T04:54:16.017Z,136.00
2023-09-10T04:55:15.994Z,147.00
2023-09-10T04:56:16.104Z,155.00
2023-09-10T04:57:15.972Z,167.00
2023-09-10T04:58:15.969Z,176.00
2023-09-10T04:59:16.020Z,188.00
2023-09-10T05:00:15.953Z,201.00
2023-09-10T05:01:15.969Z,216.00
2023-09-10T05:02:16.066Z,230.00
2023-09-10T05:03:15.966Z,242.00
2023-09-10T05:04:15.984Z,258.00
2023-09-10T05:05:15.953Z,275.00
2023-09-10T05:06:15.893Z,293.00
2023-09-10T05:07:15.907Z,307.00
2023-09-10T05:08:18.220Z,323.00
2023-09-10T05:09:15.861Z,340.00
2023-09-10T05:10:15.852Z,353.00
2023-09-10T05:11:15.959Z,380.00
2023-09-10T05:12:15.836Z,398.00
2023-09-10T05:13:15.862Z,411.00
2023-09-10T05:14:15.833Z,432.00
2023-09-10T05:15:15.812Z,450.00
2023-09-10T05:16:15.812Z,470.00
2023-09-10T05:17:15.815Z,489.00
2023-09-10T05:18:15.878Z,514.00
2023-09-10T05:19:15.754Z,536.00
2023-09-10T05:20:15.819Z,560.00
2023-09-10T05:21:15.738Z,578.00
2023-09-10T05:22:15.729Z,601.00
2023-09-10T05:23:15.749Z,626.00
2023-09-10T05:24:15.707Z,643.00
2023-09-10T05:25:15.693Z,658.00
2023-09-10T05:26:15.721Z,680.00
2023-09-10T05:27:15.673Z,702.00
2023-09-10T05:28:15.678Z,729.00
2023-09-10T05:29:15.835Z,751.00
2023-09-10T05:30:15.650Z,774.00
2023-09-10T05:31:15.655Z,803.00
2023-09-10T05:32:15.704Z,816.00
2023-09-10T05:33:15.639Z,837.00
2023-09-10T05:34:15.605Z,855.00
2023-09-10T05:35:15.650Z,877.00
2023-09-10T05:36:15.583Z,899.00
2023-09-10T05:37:15.579Z,911.00
2023-09-10T05:38:15.629Z,937.00
2023-09-10T05:39:15.577Z,961.00
2023-09-10T05:40:15.680Z,984.00
2023-09-10T05:41:15.616Z,1005.00
2023-09-10T05:42:15.522Z,1026.00
2023-09-10T05:43:15.507Z,1043.00
2023-09-10T05:44:15.532Z,1065.00
2023-09-10T05:45:15.511Z,1085.00
2023-09-10T05:46:15.513Z,1112.00
2023-09-10T05:47:15.487Z,1130.00
2023-09-10T05:48:15.461Z,1154.00
2023-09-10T05:49:15.448Z,1182.00
2023-09-10T05:50:15.524Z,1199.00
2023-09-10T05:51:15.435Z,1233.00
2023-09-10T05:52:15.430Z,1258.00
2023-09-10T05:53:15.438Z,1282.00
2023-09-10T05:54:17.577Z,1305.00
2023-09-10T05:55:15.391Z,1328.00
2023-09-10T05:56:15.394Z,1349.00
2023-09-10T05:57:15.378Z,1373.00
2023-09-10T05:58:15.364Z,1397.00
2023-09-10T05:59:15.359Z,1426.00
2023-09-10T06:00:15.327Z,1454.00
2023-09-10T06:01:15.383Z,1480.00
2023-09-10T06:02:15.352Z,1510.00
2023-09-10T06:03:15.418Z,1532.00
2023-09-10T06:04:15.328Z,1562.00
2023-09-10T06:05:15.330Z,1587.00
2023-09-10T06:06:15.272Z,1610.00
2023-09-10T06:07:15.270Z,1645.00
2023-09-10T06:08:15.304Z,1671.00
2023-09-10T06:09:15.232Z,1705.00
2023-09-10T06:10:15.222Z,1738.00
2023-09-10T06:11:15.261Z,1759.00
2023-09-10T06:12:15.215Z,1789.00
2023-09-10T06:13:15.185Z,1816.00
2023-09-10T06:14:15.224Z,1851.00
2023-09-10T06:15:15.168Z,1897.00
2023-09-10T06:16:15.165Z,1913.00
2023-09-10T06:17:15.227Z,1946.00
2023-09-10T06:18:15.128Z,1972.00
2023-09-10T06:19:15.120Z,2013.00
2023-09-10T06:20:15.150Z,2041.00
2023-09-10T06:21:15.101Z,2108.00
2023-09-10T06:22:15.104Z,2129.00
2023-09-10T06:23:15.098Z,2165.00
2023-09-10T06:24:15.090Z,2200.00
2023-09-10T06:25:15.055Z,2234.00
2023-09-10T06:26:15.121Z,2277.00
2023-09-10T06:27:15.030Z,2325.00
2023-09-10T06:28:15.014Z,2371.00
2023-09-10T06:29:15.089Z,2419.00
2023-09-10T06:30:14.998Z,2450.00
2023-09-10T06:31:15.020Z,2472.00
2023-09-10T06:32:15.022Z,2540.00
2023-09-10T06:33:14.999Z,2599.00
2023-09-10T06:34:14.979Z,2622.00
2023-09-10T06:35:14.990Z,2679.00
2023-09-10T06:36:14.958Z,2651.00
2023-09-10T06:37:14.928Z,2613.00
2023-09-10T06:38:14.988Z,2071.00
2023-09-10T06:39:14.984Z,1868.00
2023-09-10T06:40:14.910Z,3170.00
2023-09-10T06:41:14.976Z,4603.00
2023-09-10T06:42:14.874Z,8250.00
2023-09-10T06:43:14.869Z,10970.00
2023-09-10T06:44:14.897Z,16487.00
2023-09-10T06:45:14.880Z,21236.00
2023-09-10T06:46:14.904Z,19580.00
2023-09-10T06:47:14.855Z,14011.00
2023-09-10T06:48:14.807Z,12176.00
2023-09-10T06:49:14.797Z,17381.00
2023-09-10T06:50:14.849Z,20135.00
2023-09-10T06:51:14.783Z,19078.00
2023-09-10T06:52:14.754Z,16581.00
2023-09-10T06:53:14.789Z,13232.00
2023-09-10T06:54:14.878Z,14549.00
2023-09-10T06:55:14.758Z,18978.00
2023-09-10T06:56:14.764Z,17355.00
2023-09-10T06:57:14.716Z,13054.00
2023-09-10T06:58:14.687Z,15728.00
2023-09-10T06:59:14.714Z,19764.00
2023-09-10T07:00:14.782Z,16745.00
2023-09-10T07:01:14.682Z,17805.00
2023-09-10T07:02:14.648Z,20135.00
2023-09-10T07:03:14.757Z,19248.00
2023-09-10T07:04:14.620Z,13550.00
2023-09-10T07:05:14.694Z,16297.00
2023-09-10T07:06:14.758Z,20488.00
2023-09-10T07:07:14.593Z,16662.00
2023-09-10T07:08:14.612Z,18058.00
2023-09-10T07:09:14.577Z,18806.00
2023-09-10T07:10:14.564Z,16317.00
2023-09-10T07:11:14.579Z,18700.00
2023-09-10T07:12:14.657Z,22785.00
2023-09-10T07:13:14.535Z,23078.00
2023-09-10T07:14:14.555Z,21147.00
2023-09-10T07:15:14.507Z,16758.00
2023-09-10T07:16:14.548Z,19230.00
2023-09-10T07:17:14.581Z,19195.00
2023-09-10T07:18:14.517Z,16727.00
2023-09-10T07:19:14.465Z,16871.00
2023-09-10T07:20:14.519Z,18538.00
2023-09-10T07:21:14.457Z,23154.00
2023-09-10T07:22:14.500Z,25318.00
2023-09-10T07:23:14.541Z,17349.00
2023-09-10T07:24:14.422Z,16275.00
2023-09-10T07:25:14.434Z,21786.00
2023-09-10T07:26:14.422Z,21032.00
2023-09-10T07:27:14.389Z,21152.00
2023-09-10T07:28:14.395Z,20997.00
2023-09-10T07:29:14.421Z,17423.00
2023-09-10T07:30:14.346Z,18708.00
2023-09-10T07:31:14.365Z,18442.00
2023-09-10T07:32:14.352Z,25131.00
2023-09-10T07:33:14.394Z,24175.00
2023-09-10T07:34:14.300Z,12308.00
2023-09-10T07:35:14.358Z,22275.00
2023-09-10T07:36:14.287Z,23245.00
2023-09-10T07:37:14.276Z,18464.00
2023-09-10T07:38:14.357Z,16793.00
2023-09-10T07:39:14.257Z,19091.00
2023-09-10T07:40:14.237Z,21748.00
2023-09-10T07:41:14.292Z,23478.00
2023-09-10T07:42:14.222Z,21849.00
2023-09-10T07:43:14.218Z,16388.00
2023-09-10T07:44:14.243Z,19728.00
2023-09-10T07:45:14.197Z,14685.00
2023-09-10T07:46:14.214Z,15956.00
2023-09-10T07:47:14.184Z,25940.00
2023-09-10T07:48:14.176Z,20790.00
2023-09-10T07:49:14.150Z,23762.00
2023-09-10T07:50:14.203Z,23792.00
2023-09-10T07:51:14.136Z,14944.00
2023-09-10T07:52:14.142Z,23228.00
2023-09-10T07:53:14.105Z,29107.00
2023-09-10T07:54:14.093Z,26102.00
2023-09-10T07:55:14.109Z,23765.00
2023-09-10T07:56:14.113Z,19654.00
2023-09-10T07:57:16.116Z,16791.00
2023-09-10T07:58:14.052Z,35586.00
2023-09-10T07:59:14.075Z,27419.00
2023-09-10T08:00:14.032Z,16055.00
2023-09-10T08:01:14.078Z,9151.00
2023-09-10T08:02:14.048Z,10373.00
2023-09-10T08:03:14.792Z,11645.00
2023-09-10T08:04:14.014Z,12006.00
2023-09-10T08:05:14.040Z,12680.00
2023-09-10T08:06:14.012Z,10994.00
2023-09-10T08:07:13.970Z,10511.00
2023-09-10T08:08:14.010Z,11017.00
2023-09-10T08:09:13.942Z,10516.00
2023-09-10T08:10:13.934Z,9658.00
2023-09-10T08:11:14.001Z,9876.00
2023-09-10T08:12:13.909Z,8402.00
2023-09-10T08:13:13.930Z,7572.00
2023-09-10T08:14:13.901Z,9507.00
2023-09-10T08:15:13.891Z,13315.00
2023-09-10T08:16:13.915Z,13043.00
2023-09-10T08:17:13.925Z,10104.00
2023-09-10T08:18:13.882Z,6727.00
2023-09-10T08:19:13.852Z,5008.00
2023-09-10T08:20:13.889Z,4828.00
2023-09-10T08:21:13.826Z,4714.00
2023-09-10T08:22:13.817Z,4684.00
2023-09-10T08:23:13.822Z,4689.00
2023-09-10T08:24:13.778Z,4653.00
2023-09-10T08:25:13.777Z,4644.00
2023-09-10T08:26:13.830Z,4679.00
2023-09-10T08:27:13.875Z,4674.00
2023-09-10T08:28:13.749Z,4733.00
2023-09-10T08:29:13.774Z,4789.00
2023-09-10T08:30:13.726Z,4751.00
2023-09-10T08:31:13.781Z,4957.00
2023-09-10T08:32:15.631Z,5506.00
2023-09-10T08:33:13.720Z,5455.00
2023-09-10T08:34:13.677Z,5099.00
2023-09-10T08:35:13.745Z,5187.00
2023-09-10T08:36:13.657Z,5582.00
2023-09-10T08:37:13.680Z,5012.00
2023-09-10T08:38:13.753Z,4584.00
2023-09-10T08:39:13.632Z,4340.00
2023-09-10T08:40:13.616Z,4312.00
2023-09-10T08:41:13.676Z,4372.00
2023-09-10T08:42:13.713Z,4215.00
2023-09-10T08:43:13.606Z,4023.00
2023-09-10T08:44:13.612Z,3995.00
2023-09-10T08:45:13.572Z,4027.00
2023-09-10T08:46:13.603Z,3998.00
2023-09-10T08:47:13.570Z,3840.00
2023-09-10T08:48:13.542Z,3779.00
2023-09-10T08:49:13.541Z,3671.00
2023-09-10T08:50:13.584Z,3582.00
2023-09-10T08:51:13.502Z,3525.00
2023-09-10T08:52:13.491Z,3481.00
2023-09-10T08:53:13.776Z,3449.00
2023-09-10T08:54:13.512Z,3378.00
2023-09-10T08:55:13.464Z,3325.00
2023-09-10T08:56:13.465Z,3270.00
2023-09-10T08:57:13.439Z,3232.00
2023-09-10T08:58:13.426Z,3206.00
2023-09-10T08:59:13.462Z,3183.00
2023-09-10T09:00:13.485Z,3150.00
2023-09-10T09:01:13.421Z,3118.00
2023-09-10T09:02:13.439Z,3095.00
2023-09-10T09:03:13.532Z,3062.00
2023-09-10T09:04:13.365Z,3039.00
2023-09-10T09:05:13.455Z,3031.00
2023-09-10T09:06:13.497Z,2993.00
2023-09-10T09:07:13.385Z,2966.00
2023-09-10T09:08:13.341Z,2962.00
2023-09-10T09:09:13.312Z,2931.00
2023-09-10T09:10:13.299Z,2903.00
2023-09-10T09:11:13.378Z,2902.00
2023-09-10T09:12:13.284Z,2854.00
2023-09-10T09:13:13.283Z,2819.00
2023-09-10T09:14:13.279Z,2801.00
2023-09-10T09:15:13.286Z,2773.00
2023-09-10T09:16:13.273Z,2734.00
2023-09-10T09:17:14.775Z,2713.00
2023-09-10T09:18:13.251Z,2712.00
2023-09-10T09:19:13.737Z,2682.00
2023-09-10T09:20:13.267Z,2662.00
2023-09-10T09:21:13.197Z,2634.00
2023-09-10T09:22:13.174Z,2616.00
2023-09-10T09:23:13.236Z,2604.00
2023-09-10T09:24:13.156Z,2610.00
2023-09-10T09:25:13.157Z,2589.00
2023-09-10T09:26:13.150Z,2583.00
2023-09-10T09:27:13.126Z,2560.00
2023-09-10T09:28:13.133Z,2569.00
2023-09-10T09:29:13.182Z,2510.00
2023-09-10T09:30:13.109Z,2528.00
2023-09-10T09:31:13.107Z,2547.00
2023-09-10T09:32:13.107Z,2534.00
2023-09-10T09:33:13.096Z,2536.00
2023-09-10T09:34:13.072Z,2466.00
2023-09-10T09:35:13.056Z,2399.00
2023-09-10T09:36:13.039Z,2356.00
2023-09-10T09:37:13.019Z,2263.00
2023-09-10T09:38:13.086Z,2210.00
2023-09-10T09:39:13.028Z,2159.00
2023-09-10T09:40:13.004Z,2123.00
2023-09-10T09:41:13.024Z,2121.00
2023-09-10T09:42:12.968Z,2088.00
2023-09-10T09:43:19.245Z,2074.00
2023-09-10T09:44:12.990Z,2070.00
2023-09-10T09:45:12.965Z,2038.00
2023-09-10T09:46:12.961Z,2020.00
2023-09-10T09:47:12.922Z,1989.00
2023-09-10T09:48:12.995Z,1948.00
2023-09-10T09:49:12.924Z,1922.00
2023-09-10T09:50:12.921Z,1917.00
2023-09-10T09:51:12.889Z,1898.00
2023-09-10T09:52:12.858Z,1875.00
2023-09-10T09:53:12.883Z,1852.00
2023-09-10T09:54:12.856Z,1865.00
2023-09-10T09:55:12.833Z,1848.00
2023-09-10T09:56:12.848Z,1826.00
2023-09-10T09:57:12.823Z,1821.00
2023-09-10T09:58:12.800Z,1816.00
2023-09-10T09:59:12.848Z,1781.00
2023-09-10T10:00:12.775Z,1788.00
2023-09-10T10:01:12.792Z,1759.00
2023-09-10T10:02:12.998Z,1769.00
2023-09-10T10:03:12.811Z,1760.00
2023-09-10T10:04:12.750Z,1735.00
2023-09-10T10:05:12.774Z,1730.00
2023-09-10T10:06:12.715Z,1725.00
2023-09-10T10:07:23.120Z,1726.00
2023-09-10T10:08:12.736Z,1723.00
2023-09-10T10:09:12.694Z,1722.00
2023-09-10T10:10:12.684Z,1722.00
2023-09-10T10:11:12.728Z,1720.00
2023-09-10T10:12:12.668Z,1722.00
2023-09-10T10:13:12.661Z,1715.00
2023-09-10T10:14:12.682Z,1715.00
2023-09-10T10:15:12.622Z,1715.00
2023-09-10T10:16:12.664Z,1713.00
2023-09-10T10:17:12.757Z,1711.00
2023-09-10T10:18:12.702Z,1708.00
2023-09-10T10:19:12.589Z,1705.00
2023-09-10T10:20:12.635Z,1703.00
2023-09-10T10:21:12.561Z,1704.00
2023-09-10T10:22:12.570Z,1702.00
2023-09-10T10:23:23.055Z,1699.00
2023-09-10T10:24:12.555Z,1699.00
2023-09-10T10:25:12.535Z,1699.00
2023-09-10T10:26:12.557Z,1699.00
2023-09-10T10:27:12.506Z,1701.00
2023-09-10T10:28:12.500Z,1699.00
2023-09-10T10:29:12.494Z,1697.00
2023-09-10T10:30:12.494Z,1694.00
2023-09-10T10:31:12.477Z,1694.00
2023-09-10T10:32:12.522Z,1692.00
2023-09-10T10:33:12.474Z,1693.00
2023-09-10T10:34:12.433Z,1691.00
2023-09-10T10:35:12.476Z,1687.00
2023-09-10T10:36:12.413Z,1686.00
2023-09-10T10:37:12.395Z,1686.00
2023-09-10T10:38:12.458Z,1685.00
2023-09-10T10:39:12.378Z,1685.00
2023-09-10T10:40:12.442Z,1684.00
2023-09-10T10:41:12.377Z,1681.00
2023-09-10T10:42:12.359Z,1678.00
2023-09-10T10:43:12.337Z,1678.00
2023-09-10T10:44:12.346Z,1673.00
2023-09-10T10:45:12.333Z,1673.00
2023-09-10T10:46:12.348Z,1673.00
2023-09-10T10:47:12.326Z,1669.00
2023-09-10T10:48:12.335Z,1665.00
2023-09-10T10:49:12.275Z,1663.00
2023-09-10T10:50:12.407Z,1662.00
2023-09-10T10:51:12.395Z,1662.00
2023-09-10T10:52:12.246Z,1660.00
2023-09-10T10:53:12.311Z,1658.00
2023-09-10T10:54:12.230Z,1656.00
2023-09-10T10:55:12.227Z,1656.00
2023-09-10T10:56:12.221Z,1653.00
2023-09-10T10:57:12.234Z,1648.00
2023-09-10T10:58:12.189Z,1648.00
2023-09-10T10:59:12.199Z,1647.00
2023-09-10T11:00:12.188Z,1648.00
2023-09-10T11:01:12.172Z,1650.00
2023-09-10T11:02:12.183Z,1648.00
2023-09-10T11:03:12.221Z,1647.00
2023-09-10T11:04:12.119Z,1645.00
2023-09-10T11:05:12.180Z,1642.00
2023-09-10T11:06:12.112Z,1642.00
2023-09-10T11:07:12.090Z,1639.00
2023-09-10T11:08:12.100Z,1638.00
2023-09-10T11:09:12.063Z,1640.00
2023-09-10T11:10:12.089Z,1640.00
2023-09-10T11:11:12.156Z,1637.00
2023-09-10T11:12:12.040Z,1638.00
2023-09-10T11:13:12.033Z,1636.00
2023-09-10T11:14:12.084Z,1635.00
2023-09-10T11:15:12.116Z,1637.00
2023-09-10T11:16:12.041Z,1636.00
2023-09-10T11:17:12.034Z,1636.00
2023-09-10T11:18:12.006Z,1637.00
2023-09-10T11:19:11.965Z,1636.00
2023-09-10T11:20:11.994Z,1636.00
2023-09-10T11:21:11.987Z,1638.00
2023-09-10T11:22:11.946Z,1639.00
2023-09-10T11:23:11.941Z,1641.00
2023-09-10T11:24:11.912Z,1643.00
2023-09-10T11:25:11.897Z,1641.00
2023-09-10T11:26:12.038Z,1640.00
2023-09-10T11:27:11.879Z,1640.00
2023-09-10T11:28:11.882Z,1640.00
2023-09-10T11:29:11.891Z,1640.00
2023-09-10T11:30:11.857Z,1638.00
2023-09-10T11:31:11.900Z,1636.00
2023-09-10T11:32:11.941Z,1636.00
2023-09-10T11:33:11.864Z,1638.00
2023-09-10T11:34:11.812Z,1637.00
2023-09-10T11:35:11.806Z,1636.00
2023-09-10T11:36:11.792Z,1636.00
2023-09-10T11:37:12.152Z,1636.00
2023-09-10T11:38:11.793Z,1638.00
2023-09-10T11:39:11.765Z,1640.00
2023-09-10T11:40:11.803Z,1639.00
2023-09-10T11:41:11.750Z,1640.00
2023-09-10T11:42:11.751Z,1639.00
2023-09-10T11:43:11.712Z,1638.00
2023-09-10T11:44:11.768Z,1638.00
2023-09-10T11:45:11.698Z,1636.00
2023-09-10T11:46:11.690Z,1638.00
2023-09-10T11:47:11.775Z,1640.00
2023-09-10T11:48:11.766Z,1638.00
2023-09-10T11:49:11.673Z,1640.00
2023-09-10T11:50:11.749Z,1637.00
2023-09-10T11:51:11.646Z,1638.00
2023-09-10T11:52:11.668Z,1639.00
2023-09-10T11:53:13.554Z,1641.00
2023-09-10T11:54:11.610Z,1639.00
2023-09-10T11:55:11.623Z,1637.00
2023-09-10T11:56:11.633Z,1637.00
2023-09-10T11:57:11.585Z,1637.00
2023-09-10T11:58:11.573Z,1637.00
2023-09-10T11:59:11.602Z,1638.00
2023-09-10T12:00:11.566Z,1638.00
2023-09-10T12:01:11.560Z,1636.00
2023-09-10T12:02:11.624Z,1637.00
2023-09-10T12:03:11.665Z,1640.00
2023-09-10T12:04:11.615Z,1642.00
2023-09-10T12:05:11.497Z,1642.00
2023-09-10T12:06:11.485Z,1641.00
2023-09-10T12:07:11.494Z,1640.00
2023-09-10T12:08:11.538Z,1643.00
2023-09-10T12:09:11.449Z,1641.00
2023-09-10T12:10:11.445Z,1641.00
2023-09-10T12:11:11.527Z,1641.00
2023-09-10T12:12:11.456Z,1642.00
2023-09-10T12:13:11.428Z,1646.00
2023-09-10T12:14:11.451Z,1646.00
2023-09-10T12:15:11.391Z,1643.00
2023-09-10T12:16:11.501Z,1639.00
2023-09-10T12:17:11.450Z,1639.00
2023-09-10T12:18:11.412Z,1640.00
2023-09-10T12:19:11.357Z,1641.00
2023-09-10T12:20:11.640Z,1643.00
2023-09-10T12:21:11.324Z,1644.00
2023-09-10T12:22:11.321Z,1646.00
2023-09-10T12:23:11.413Z,1644.00
2023-09-10T12:24:11.300Z,1644.00
2023-09-10T12:25:11.298Z,1645.00
2023-09-10T12:26:11.305Z,1644.00
2023-09-10T12:27:11.272Z,1645.00
2023-09-10T12:28:11.278Z,1647.00
2023-09-10T12:29:11.260Z,1648.00
2023-09-10T12:30:11.240Z,1651.00
2023-09-10T12:31:11.265Z,1654.00